Time;durP1;ratioP1;P1;durP2;ratioP2;P2;SDS_P1;SDS_P2;PMS_P1;PMS_P2;Temp;Humidity;BMP_temperature;BMP_pressure;BME280_temperature;BME280_humidity;BME280_pressure;Samples;Min_cycle;Max_cycle;Signal;HPM_P1;HPM_P2
2023/10/27 00:02:31;;;;;;;11.90;4.80;;;;;;;;;;5893387;28;20059;-75
2023/10/27 00:05:21;;;;;;;6.68;3.15;;;;;;;;;;5903434;28;20056;-74
2023/10/27 00:08:13;;;;;;;8.32;3.40;;;;;;;;;;5887816;28;20045;-75
2023/10/27 00:11:05;;;;;;;9.65;2.78;;;;;;;;;;5887463;28;20049;-74
2023/10/27 00:13:56;;;;;;;4.30;2.65;;;;;;;;;;5888546;28;20422;-74
2023/10/27 00:16:46;;;;;;;8.00;3.70;;;;;;;;;;5886543;28;20187;-75
2023/10/27 00:19:37;;;;;;;5.28;2.95;;;;;;;;;;5886505;28;20136;-75
2023/10/27 00:22:28;;;;;;;21.30;3.33;;;;;;;;;;5887565;28;20064;-75
2023/10/27 00:25:19;;;;;;;6.32;4.15;;;;;;;;;;5887401;28;20049;-75
2023/10/27 00:28:10;;;;;;;4.47;3.22;;;;;;;;;;5887308;28;20049;-74
2023/10/27 00:31:01;;;;;;;5.13;3.00;;;;;;;;;;5887646;28;20071;-72
2023/10/27 00:33:51;;;;;;;6.53;4.97;;;;;;;;;;5887960;28;20045;-75
2023/10/27 00:36:42;;;;;;;3.72;2.80;;;;;;;;;;5887254;28;20049;-75
2023/10/27 00:39:33;;;;;;;4.13;3.60;;;;;;;;;;5887285;28;20048;-74
2023/10/27 00:42:24;;;;;;;10.25;5.15;;;;;;;;;;5886915;28;20048;-75
2023/10/27 00:45:14;;;;;;;4.03;3.63;;;;;;;;;;5887392;28;20478;-75
2023/10/27 00:48:05;;;;;;;4.97;4.43;;;;;;;;;;5887093;28;20056;-74
2023/10/27 00:50:56;;;;;;;4.53;4.10;;;;;;;;;;5888004;28;20061;-75
2023/10/27 00:53:47;;;;;;;18.15;5.00;;;;;;;;;;5885064;28;20122;-75
2023/10/27 00:56:39;;;;;;;5.03;4.47;;;;;;;;;;5886512;28;20045;-74
2023/10/27 00:59:32;;;;;;;4.68;3.78;;;;;;;;;;5887465;28;20040;-74
2023/10/27 01:02:23;;;;;;;11.23;4.90;;;;;;;;;;5888980;28;20403;-74
2023/10/27 01:05:15;;;;;;;8.10;4.10;;;;;;;;;;5899045;28;20230;-74
2023/10/27 01:08:05;;;;;;;4.80;2.70;;;;;;;;;;5915439;28;20080;-74
2023/10/27 01:10:56;;;;;;;4.90;3.50;;;;;;;;;;5915501;28;20053;-74
2023/10/27 01:13:55;;;;;;;10.65;3.67;;;;;;;;;;5915205;28;20048;-74
2023/10/27 01:16:45;;;;;;;13.60;4.50;;;;;;;;;;5914804;28;20052;-74
2023/10/27 01:19:36;;;;;;;5.82;3.55;;;;;;;;;;5915315;28;20525;-74
2023/10/27 01:22:28;;;;;;;5.75;3.05;;;;;;;;;;5914677;28;20036;-74
2023/10/27 01:25:19;;;;;;;4.22;3.20;;;;;;;;;;5914145;28;20094;-74
2023/10/27 01:28:10;;;;;;;5.07;2.58;;;;;;;;;;5914944;28;20049;-75
2023/10/27 01:31:00;;;;;;;2.67;2.17;;;;;;;;;;5915303;28;20417;-74
2023/10/27 01:33:51;;;;;;;3.45;2.50;;;;;;;;;;5914970;28;20502;-74
2023/10/27 01:36:42;;;;;;;5.70;3.22;;;;;;;;;;5914064;28;20103;-74
2023/10/27 01:39:33;;;;;;;3.75;2.97;;;;;;;;;;5914785;28;20045;-74
2023/10/27 01:42:24;;;;;;;4.93;3.05;;;;;;;;;;5914132;28;20048;-74
2023/10/27 01:45:15;;;;;;;9.68;3.15;;;;;;;;;;5914089;28;20060;-74
2023/10/27 01:48:06;;;;;;;5.88;4.00;;;;;;;;;;5914365;28;20052;-74
2023/10/27 01:50:57;;;;;;;4.18;3.10;;;;;;;;;;5914381;28;20048;-74
2023/10/27 01:53:48;;;;;;;5.63;4.13;;;;;;;;;;5913042;28;20048;-74
2023/10/27 01:56:39;;;;;;;5.97;4.40;;;;;;;;;;5913390;28;20419;-74
2023/10/27 01:59:30;;;;;;;5.38;2.67;;;;;;;;;;5914321;28;20052;-74
2023/10/27 02:02:20;;;;;;;8.88;4.45;;;;;;;;;;5912454;28;20409;-74
2023/10/27 02:05:11;;;;;;;4.85;3.17;;;;;;;;;;5913645;28;20052;-74
2023/10/27 02:08:02;;;;;;;13.82;2.88;;;;;;;;;;5913968;28;20048;-73
2023/10/27 02:10:53;;;;;;;4.60;2.60;;;;;;;;;;5914008;28;20049;-74
2023/10/27 02:13:44;;;;;;;3.97;2.92;;;;;;;;;;5913950;28;20054;-74
2023/10/27 02:16:34;;;;;;;3.67;2.80;;;;;;;;;;5913173;28;20498;-74
2023/10/27 02:19:25;;;;;;;5.75;3.05;;;;;;;;;;5912206;28;20048;-74
2023/10/27 02:22:19;;;;;;;5.85;3.90;;;;;;;;;;5913437;28;20106;-73
2023/10/27 02:25:10;;;;;;;4.60;3.70;;;;;;;;;;5913661;28;20525;-73
2023/10/27 02:28:01;;;;;;;7.55;2.40;;;;;;;;;;5913714;28;20468;-73
2023/10/27 02:30:52;;;;;;;2.85;2.63;;;;;;;;;;5913476;28;20390;-74
2023/10/27 02:33:43;;;;;;;3.95;2.03;;;;;;;;;;5913496;28;20055;-74
2023/10/27 02:36:33;;;;;;;9.93;3.33;;;;;;;;;;5913206;28;20051;-74
2023/10/27 02:39:24;;;;;;;2.88;2.05;;;;;;;;;;5912922;28;20046;-74
2023/10/27 02:42:15;;;;;;;3.10;2.42;;;;;;;;;;5912897;28;20127;-74
2023/10/27 02:45:07;;;;;;;3.97;2.40;;;;;;;;;;5913201;28;20056;-73
2023/10/27 02:47:58;;;;;;;5.22;2.95;;;;;;;;;;5913630;28;20505;-73
2023/10/27 02:50:49;;;;;;;3.22;2.78;;;;;;;;;;5912615;28;20090;-74
2023/10/27 02:53:40;;;;;;;4.10;2.60;;;;;;;;;;5913296;28;20052;-74
2023/10/27 02:56:31;;;;;;;4.32;2.25;;;;;;;;;;5912564;28;20041;-73
2023/10/27 02:59:21;;;;;;;3.17;2.88;;;;;;;;;;5912777;28;20080;-74
2023/10/27 03:02:12;;;;;;;4.18;2.55;;;;;;;;;;5912713;28;20245;-73
2023/10/27 03:05:03;;;;;;;6.68;2.92;;;;;;;;;;5912774;28;20470;-73
2023/10/27 03:07:54;;;;;;;4.22;2.65;;;;;;;;;;5913189;28;20048;-74
2023/10/27 03:10:45;;;;;;;4.72;2.88;;;;;;;;;;5911866;28;20048;-74
2023/10/27 03:13:35;;;;;;;6.93;3.50;;;;;;;;;;5913015;28;20048;-73
2023/10/27 03:16:27;;;;;;;3.17;2.35;;;;;;;;;;5901634;28;20414;-73
2023/10/27 03:19:18;;;;;;;3.65;2.95;;;;;;;;;;5901903;28;20052;-74
2023/10/27 03:22:09;;;;;;;4.82;3.33;;;;;;;;;;5909574;28;20127;-73
2023/10/27 03:25:01;;;;;;;4.78;3.53;;;;;;;;;;5911906;28;20050;-74
2023/10/27 03:27:52;;;;;;;8.60;3.65;;;;;;;;;;5912593;28;20503;-74
2023/10/27 03:30:44;;;;;;;5.43;4.15;;;;;;;;;;5909502;28;20064;-74
2023/10/27 03:33:35;;;;;;;6.07;4.00;;;;;;;;;;5912354;28;20048;-73
2023/10/27 03:36:26;;;;;;;9.85;3.45;;;;;;;;;;5911712;28;20486;-74
2023/10/27 03:39:16;;;;;;;7.32;2.88;;;;;;;;;;5912232;28;20044;-73
2023/10/27 03:42:07;;;;;;;9.88;4.28;;;;;;;;;;5911021;28;20053;-73
2023/10/27 03:44:58;;;;;;;3.88;2.80;;;;;;;;;;5912143;28;20052;-73
2023/10/27 03:47:49;;;;;;;5.22;3.35;;;;;;;;;;5910665;28;20131;-74
2023/10/27 03:50:39;;;;;;;4.28;3.88;;;;;;;;;;5911194;28;20157;-74
2023/10/27 03:53:31;;;;;;;4.45;3.30;;;;;;;;;;5911899;28;20056;-73
2023/10/27 03:56:21;;;;;;;6.93;3.92;;;;;;;;;;5910898;28;20056;-74
2023/10/27 03:59:12;;;;;;;4.93;4.43;;;;;;;;;;5911710;28;20059;-73
2023/10/27 04:02:05;;;;;;;17.70;5.82;;;;;;;;;;5910696;28;20509;-73
2023/10/27 04:04:56;;;;;;;11.60;4.50;;;;;;;;;;5911704;28;20055;-73
2023/10/27 04:07:47;;;;;;;12.63;5.90;;;;;;;;;;5911465;28;20055;-73
2023/10/27 04:10:37;;;;;;;4.80;4.38;;;;;;;;;;5910967;28;20426;-73
2023/10/27 04:13:28;;;;;;;8.30;4.82;;;;;;;;;;5910967;28;20051;-73
2023/10/27 04:16:19;;;;;;;10.38;4.75;;;;;;;;;;5910950;28;20074;-74
2023/10/27 04:19:10;;;;;;;5.18;4.00;;;;;;;;;;5911543;28;20048;-73
2023/10/27 04:22:02;;;;;;;6.40;3.55;;;;;;;;;;5910329;28;20068;-73
2023/10/27 04:24:53;;;;;;;4.55;3.75;;;;;;;;;;5909803;28;20502;-73
2023/10/27 04:27:44;;;;;;;8.43;4.55;;;;;;;;;;5911172;28;20440;-73
2023/10/27 04:30:36;;;;;;;22.92;6.10;;;;;;;;;;5910865;28;20044;-73
2023/10/27 04:33:29;;;;;;;10.55;6.43;;;;;;;;;;5911109;28;20056;-73
2023/10/27 04:36:20;;;;;;;15.93;5.78;;;;;;;;;;5909159;28;20105;-73
2023/10/27 04:39:11;;;;;;;6.93;3.90;;;;;;;;;;5911132;28;20053;-73
2023/10/27 04:42:02;;;;;;;4.00;3.60;;;;;;;;;;5910262;28;20060;-73
2023/10/27 04:44:53;;;;;;;3.70;2.80;;;;;;;;;;5909878;28;20048;-74
2023/10/27 04:47:44;;;;;;;4.75;3.20;;;;;;;;;;5909725;28;20045;-73
2023/10/27 04:50:35;;;;;;;4.85;3.47;;;;;;;;;;5910655;28;20041;-74
2023/10/27 04:53:25;;;;;;;6.90;3.10;;;;;;;;;;5910922;28;20210;-73
2023/10/27 04:56:16;;;;;;;2.25;2.05;;;;;;;;;;5910011;28;20053;-73
2023/10/27 04:59:07;;;;;;;3.92;3.08;;;;;;;;;;5910684;28;20052;-73
2023/10/27 05:01:59;;;;;;;3.30;2.78;;;;;;;;;;5910761;28;20052;-73
2023/10/27 05:04:49;;;;;;;3.45;2.50;;;;;;;;;;5910453;28;20049;-73
2023/10/27 05:07:40;;;;;;;4.90;2.72;;;;;;;;;;5910304;28;20078;-73
2023/10/27 05:10:31;;;;;;;7.82;4.07;;;;;;;;;;5910227;28;20067;-73
2023/10/27 05:13:22;;;;;;;4.97;3.55;;;;;;;;;;5910593;28;20115;-73
2023/10/27 05:16:13;;;;;;;2.50;1.80;;;;;;;;;;5909950;28;20049;-73
2023/10/27 05:19:04;;;;;;;14.68;6.28;;;;;;;;;;5910511;28;20455;-73
2023/10/27 05:21:56;;;;;;;7.35;4.30;;;;;;;;;;5910507;28;20391;-73
2023/10/27 05:24:47;;;;;;;5.03;4.05;;;;;;;;;;5910341;28;20170;-73
2023/10/27 05:27:38;;;;;;;6.45;4.07;;;;;;;;;;5910117;28;20056;-73
2023/10/27 05:30:29;;;;;;;4.88;3.30;;;;;;;;;;5909937;28;20049;-73
2023/10/27 05:33:20;;;;;;;3.13;2.72;;;;;;;;;;5909029;28;20060;-74
2023/10/27 05:36:11;;;;;;;5.00;4.05;;;;;;;;;;5909472;28;20049;-73
2023/10/27 05:39:02;;;;;;;3.03;2.47;;;;;;;;;;5910382;28;20049;-72
2023/10/27 05:41:52;;;;;;;4.60;2.55;;;;;;;;;;5910009;28;20044;-73
2023/10/27 05:44:43;;;;;;;4.15;3.75;;;;;;;;;;5910418;28;20532;-73
2023/10/27 05:47:34;;;;;;;3.05;2.30;;;;;;;;;;5909974;28;20119;-73
2023/10/27 05:50:25;;;;;;;2.70;2.45;;;;;;;;;;5914290;28;20448;-73
2023/10/27 05:53:16;;;;;;;4.60;2.72;;;;;;;;;;5914475;28;20048;-73
2023/10/27 05:56:06;;;;;;;4.07;3.13;;;;;;;;;;5913488;28;20055;-73
2023/10/27 05:58:57;;;;;;;3.22;2.90;;;;;;;;;;5914836;28;20131;-73
2023/10/27 06:01:48;;;;;;;3.13;2.83;;;;;;;;;;5913973;28;20052;-73
2023/10/27 06:04:53;;;;;;;2.63;2.42;;;;;;;;;;5914136;28;20055;-73
2023/10/27 06:07:44;;;;;;;3.53;2.67;;;;;;;;;;5913777;28;20508;-73
2023/10/27 06:10:35;;;;;;;6.65;2.20;;;;;;;;;;5913705;28;20049;-73
2023/10/27 06:13:26;;;;;;;4.85;1.98;;;;;;;;;;5914027;28;20052;-73
2023/10/27 06:16:17;;;;;;;4.38;2.67;;;;;;;;;;5913254;28;20052;-74
2023/10/27 06:19:08;;;;;;;2.75;1.83;;;;;;;;;;5913714;28;20115;-73
2023/10/27 06:22:00;;;;;;;3.58;2.55;;;;;;;;;;5913778;28;20060;-73
2023/10/27 06:24:51;;;;;;;3.88;2.38;;;;;;;;;;5912275;28;20040;-73
2023/10/27 06:27:42;;;;;;;2.53;2.33;;;;;;;;;;5912570;28;20051;-73
2023/10/27 06:30:32;;;;;;;5.95;4.65;;;;;;;;;;5913267;28;20044;-73
2023/10/27 06:33:23;;;;;;;8.90;6.68;;;;;;;;;;5912325;28;20055;-73
2023/10/27 06:36:14;;;;;;;4.55;3.88;;;;;;;;;;5912868;28;20044;-73
2023/10/27 06:39:05;;;;;;;6.15;3.45;;;;;;;;;;5913460;28;20056;-73
2023/10/27 06:41:56;;;;;;;4.32;3.92;;;;;;;;;;5913097;28;20049;-74
2023/10/27 06:44:47;;;;;;;6.07;4.85;;;;;;;;;;5912956;28;20049;-74
2023/10/27 06:47:39;;;;;;;6.55;5.82;;;;;;;;;;5913169;28;20045;-73
2023/10/27 06:50:30;;;;;;;7.03;4.60;;;;;;;;;;5912973;28;20074;-73
2023/10/27 06:53:20;;;;;;;7.15;4.60;;;;;;;;;;5913085;28;20060;-73
2023/10/27 06:56:11;;;;;;;8.32;4.97;;;;;;;;;;5912055;28;20048;-74
2023/10/27 06:59:02;;;;;;;4.53;3.65;;;;;;;;;;5911921;28;20048;-74
2023/10/27 07:01:54;;;;;;;3.92;3.53;;;;;;;;;;5911589;28;20060;-74
2023/10/27 07:04:45;;;;;;;3.40;3.08;;;;;;;;;;5912602;28;20052;-74
2023/10/27 07:07:36;;;;;;;5.28;3.58;;;;;;;;;;5912531;28;20152;-73
2023/10/27 07:10:27;;;;;;;2.97;2.72;;;;;;;;;;5912339;28;20067;-74
2023/10/27 07:13:18;;;;;;;4.15;3.17;;;;;;;;;;5912541;28;20049;-74
2023/10/27 07:16:09;;;;;;;4.53;2.55;;;;;;;;;;5912565;28;20517;-73
2023/10/27 07:19:00;;;;;;;6.78;2.55;;;;;;;;;;5911793;28;20417;-74
2023/10/27 07:21:51;;;;;;;3.58;3.22;;;;;;;;;;5911852;28;20052;-74
2023/10/27 07:24:42;;;;;;;5.45;4.13;;;;;;;;;;5912658;28;20052;-74
2023/10/27 07:27:34;;;;;;;7.03;4.45;;;;;;;;;;5911506;28;20127;-74
2023/10/27 07:30:25;;;;;;;5.90;3.90;;;;;;;;;;5911843;28;20045;-74
2023/10/27 07:33:15;;;;;;;6.72;3.30;;;;;;;;;;5911714;28;20418;-74
2023/10/27 07:36:06;;;;;;;5.85;2.95;;;;;;;;;;5911800;28;20053;-73
2023/10/27 07:38:58;;;;;;;4.60;2.67;;;;;;;;;;5911502;28;20068;-74
2023/10/27 07:41:52;;;;;;;8.27;4.95;;;;;;;;;;5911007;28;20458;-74
2023/10/27 07:44:43;;;;;;;5.32;3.97;;;;;;;;;;5912039;28;20067;-74
2023/10/27 07:47:34;;;;;;;4.68;3.25;;;;;;;;;;5911730;28;20051;-74
2023/10/27 07:50:25;;;;;;;4.50;3.85;;;;;;;;;;5911514;28;20040;-74
2023/10/27 07:53:16;;;;;;;7.35;4.63;;;;;;;;;;5910708;28;20044;-74
2023/10/27 07:56:08;;;;;;;9.77;4.32;;;;;;;;;;5910421;28;20060;-73
2023/10/27 07:58:59;;;;;;;8.45;4.88;;;;;;;;;;5912185;28;20131;-74
2023/10/27 08:01:51;;;;;;;16.30;5.75;;;;;;;;;;5911323;28;20040;-74
2023/10/27 08:04:42;;;;;;;10.02;4.45;;;;;;;;;;5911061;28;20402;-74
2023/10/27 08:07:35;;;;;;;6.68;4.78;;;;;;;;;;5911318;28;20094;-74
2023/10/27 08:10:25;;;;;;;5.28;4.45;;;;;;;;;;5910757;28;20049;-75
2023/10/27 08:13:16;;;;;;;5.75;5.13;;;;;;;;;;5911622;28;20049;-75
2023/10/27 08:16:07;;;;;;;10.85;5.03;;;;;;;;;;5910564;28;20049;-74
2023/10/27 08:18:58;;;;;;;4.85;4.22;;;;;;;;;;5912018;28;20056;-74
2023/10/27 08:21:49;;;;;;;6.25;4.30;;;;;;;;;;5911000;28;20517;-74
2023/10/27 08:24:40;;;;;;;5.80;5.07;;;;;;;;;;5911406;28;20091;-75
2023/10/27 08:27:31;;;;;;;8.85;4.90;;;;;;;;;;5910647;28;20064;-74
2023/10/27 08:30:21;;;;;;;7.00;4.20;;;;;;;;;;5910879;28;20060;-75
2023/10/27 08:33:14;;;;;;;8.30;4.00;;;;;;;;;;5911284;28;20074;-74
2023/10/27 08:36:05;;;;;;;6.82;3.67;;;;;;;;;;5910690;28;20658;-74
2023/10/27 08:38:56;;;;;;;5.35;3.30;;;;;;;;;;5910524;28;20071;-74
2023/10/27 08:41:48;;;;;;;5.03;3.45;;;;;;;;;;5893777;28;20080;-74
2023/10/27 08:44:43;;;;;;;6.75;4.05;;;;;;;;;;5888073;28;20049;-74
2023/10/27 08:47:36;;;;;;;7.28;3.78;;;;;;;;;;5907734;28;20513;-74
2023/10/27 08:50:29;;;;;;;7.05;4.38;;;;;;;;;;5910925;28;20494;-75
2023/10/27 08:53:20;;;;;;;8.90;4.10;;;;;;;;;;5911038;28;20064;-74
2023/10/27 08:56:14;;;;;;;3.63;3.10;;;;;;;;;;5910146;28;20052;-74
2023/10/27 08:59:09;;;;;;;7.75;4.65;;;;;;;;;;5911159;28;20413;-73
2023/10/27 09:02:01;;;;;;;5.82;3.55;;;;;;;;;;5910918;28;20429;-74
2023/10/27 09:04:59;;;;;;;5.10;3.65;;;;;;;;;;5911001;28;20044;-74
2023/10/27 09:07:50;;;;;;;4.13;3.17;;;;;;;;;;5909623;28;20040;-74
2023/10/27 09:10:41;;;;;;;4.05;2.95;;;;;;;;;;5910578;28;20056;-75
2023/10/27 09:13:39;;;;;;;3.65;2.83;;;;;;;;;;5911056;28;20513;-75
2023/10/27 09:16:30;;;;;;;3.50;2.53;;;;;;;;;;5909098;28;20616;-74
2023/10/27 09:19:25;;;;;;;3.22;2.22;;;;;;;;;;5911290;28;20166;-75
2023/10/27 09:22:18;;;;;;;4.43;2.47;;;;;;;;;;5910414;28;20140;-74
2023/10/27 09:25:14;;;;;;;27.67;2.55;;;;;;;;;;5915359;28;20056;-74
2023/10/27 09:28:06;;;;;;;8.63;4.05;;;;;;;;;;5915118;28;20063;-74
2023/10/27 09:30:57;;;;;;;3.45;3.10;;;;;;;;;;5914367;28;20048;-74
2023/10/27 09:33:48;;;;;;;5.35;2.90;;;;;;;;;;5915219;28;20422;-75
2023/10/27 09:36:38;;;;;;;5.97;2.38;;;;;;;;;;5914820;28;20049;-74
2023/10/27 09:39:30;;;;;;;4.78;2.85;;;;;;;;;;5914043;28;20041;-74
2023/10/27 09:42:21;;;;;;;2.72;2.17;;;;;;;;;;5913801;28;20056;-74
2023/10/27 09:45:13;;;;;;;10.63;2.13;;;;;;;;;;5913632;28;20387;-74
2023/10/27 09:48:06;;;;;;;2.97;2.25;;;;;;;;;;5914816;28;20059;-75
2023/10/27 09:51:00;;;;;;;6.35;3.30;;;;;;;;;;5915056;28;20055;-74
2023/10/27 09:53:52;;;;;;;4.45;2.90;;;;;;;;;;5913823;28;20562;-74
2023/10/27 09:56:43;;;;;;;2.45;2.25;;;;;;;;;;5912927;28;20052;-73
2023/10/27 09:59:34;;;;;;;5.88;3.17;;;;;;;;;;5913568;28;20055;-74
2023/10/27 10:02:26;;;;;;;5.78;2.72;;;;;;;;;;5913734;28;20604;-74
2023/10/27 10:05:18;;;;;;;2.92;2.65;;;;;;;;;;5914323;28;20055;-74
2023/10/27 10:08:09;;;;;;;4.63;3.03;;;;;;;;;;5914461;28;20151;-74
2023/10/27 10:11:17;;;;;;;7.07;2.58;;;;;;;;;;5914136;28;20059;-74
2023/10/27 10:14:08;;;;;;;2.47;2.08;;;;;;;;;;5914035;28;20055;-73
2023/10/27 10:16:59;;;;;;;2.88;1.77;;;;;;;;;;5914460;28;20053;-73
2023/10/27 10:19:51;;;;;;;2.97;2.10;;;;;;;;;;5914077;28;20056;-73
2023/10/27 10:22:51;;;;;;;3.40;2.58;;;;;;;;;;5899828;28;20414;-73
2023/10/27 10:25:50;;;;;;;13.13;9.20;;;;;;;;;;5890553;28;20049;-72
2023/10/27 10:28:41;;;;;;;2.45;2.25;;;;;;;;;;5890853;28;20124;-72
2023/10/27 10:31:32;;;;;;;6.38;3.35;;;;;;;;;;5890147;28;20052;-72
2023/10/27 10:34:23;;;;;;;5.97;3.55;;;;;;;;;;5889185;28;20049;-71
2023/10/27 10:37:24;;;;;;;14.93;4.47;;;;;;;;;;5890383;28;20425;-71
2023/10/27 10:40:26;;;;;;;7.63;3.42;;;;;;;;;;5890076;28;20047;-71
2023/10/27 10:43:33;;;;;;;2.20;1.88;;;;;;;;;;5890003;28;20391;-70
2023/10/27 10:46:29;;;;;;;12.10;4.22;;;;;;;;;;5889950;28;20045;-70
2023/10/27 10:49:28;;;;;;;5.40;3.05;;;;;;;;;;5888978;28;20049;-71
2023/10/27 10:52:21;;;;;;;10.63;4.22;;;;;;;;;;5889903;28;20056;-70
2023/10/27 10:55:20;;;;;;;4.38;2.88;;;;;;;;;;5889705;28;20045;-70
2023/10/27 10:58:29;;;;;;;2.80;1.83;;;;;;;;;;5889741;28;20056;-71
2023/10/27 11:01:22;;;;;;;2.63;1.77;;;;;;;;;;5889139;28;20128;-71
2023/10/27 11:04:14;;;;;;;3.03;2.10;;;;;;;;;;5889443;28;20045;-71
2023/10/27 11:07:05;;;;;;;4.82;2.80;;;;;;;;;;5889467;28;20064;-70
2023/10/27 11:10:16;;;;;;;7.90;3.05;;;;;;;;;;5889115;28;20131;-70
2023/10/27 11:13:12;;;;;;;2.95;2.53;;;;;;;;;;5889517;28;20526;-71
2023/10/27 11:16:19;;;;;;;3.67;3.15;;;;;;;;;;5887890;28;20052;-71
2023/10/27 11:19:18;;;;;;;6.72;3.97;;;;;;;;;;5889190;28;20057;-71
2023/10/27 11:22:09;;;;;;;6.03;2.15;;;;;;;;;;5888824;28;20138;-71
2023/10/27 11:25:00;;;;;;;5.32;3.53;;;;;;;;;;5888178;28;20049;-71
2023/10/27 11:27:51;;;;;;;3.75;2.30;;;;;;;;;;5889490;28;20049;-71
2023/10/27 11:30:41;;;;;;;8.35;5.57;;;;;;;;;;5888585;28;20089;-71
2023/10/27 11:33:32;;;;;;;3.75;3.00;;;;;;;;;;5889143;28;20045;-71
2023/10/27 11:36:39;;;;;;;4.53;3.50;;;;;;;;;;5888755;28;20548;-71
2023/10/27 11:39:33;;;;;;;4.00;2.28;;;;;;;;;;5888908;28;20065;-71
2023/10/27 11:42:24;;;;;;;4.25;2.90;;;;;;;;;;5888300;28;20053;-71
2023/10/27 11:45:15;;;;;;;17.92;4.13;;;;;;;;;;5888314;28;20056;-70
2023/10/27 11:48:06;;;;;;;8.10;5.47;;;;;;;;;;5888543;28;20135;-71
2023/10/27 11:50:59;;;;;;;5.38;3.15;;;;;;;;;;5888757;28;20049;-70
2023/10/27 11:53:50;;;;;;;5.82;3.88;;;;;;;;;;5888881;28;20498;-70
2023/10/27 11:56:41;;;;;;;4.60;3.80;;;;;;;;;;5888111;28;20045;-70
2023/10/27 11:59:31;;;;;;;4.43;3.28;;;;;;;;;;5888813;28;20044;-70
2023/10/27 12:02:22;;;;;;;4.82;4.18;;;;;;;;;;5887684;28;20045;-70
2023/10/27 12:05:13;;;;;;;8.30;4.72;;;;;;;;;;5888353;28;20045;-70
2023/10/27 12:08:04;;;;;;;6.22;3.90;;;;;;;;;;5888253;28;20049;-70
2023/10/27 12:10:55;;;;;;;3.67;2.92;;;;;;;;;;5888123;28;20053;-70
2023/10/27 12:13:46;;;;;;;3.78;2.75;;;;;;;;;;5888471;28;20052;-70
2023/10/27 12:16:38;;;;;;;4.63;2.40;;;;;;;;;;5888251;28;20052;-70
2023/10/27 12:19:29;;;;;;;8.57;4.10;;;;;;;;;;5888568;28;20051;-70
2023/10/27 12:22:20;;;;;;;2.60;2.40;;;;;;;;;;5887194;28;20045;-70
2023/10/27 12:25:12;;;;;;;3.58;3.05;;;;;;;;;;5886453;28;20056;-69
2023/10/27 12:28:04;;;;;;;4.43;3.10;;;;;;;;;;5888038;28;20045;-69
2023/10/27 12:30:59;;;;;;;3.78;3.10;;;;;;;;;;5888001;28;20517;-69
2023/10/27 12:33:51;;;;;;;5.05;3.45;;;;;;;;;;5888050;28;20052;-69
2023/10/27 12:36:42;;;;;;;4.30;3.55;;;;;;;;;;5887392;28;20056;-69
2023/10/27 12:39:33;;;;;;;4.68;2.78;;;;;;;;;;5888028;28;20052;-69
2023/10/27 12:42:24;;;;;;;5.35;3.33;;;;;;;;;;5886930;28;20124;-69
2023/10/27 12:45:15;;;;;;;4.93;3.15;;;;;;;;;;5887649;28;20041;-69
2023/10/27 12:48:06;;;;;;;5.13;3.30;;;;;;;;;;5887766;28;20048;-69
2023/10/27 12:50:59;;;;;;;5.93;5.00;;;;;;;;;;5887679;28;20048;-69
2023/10/27 12:53:51;;;;;;;4.45;3.47;;;;;;;;;;5887903;28;20052;-69
2023/10/27 12:56:42;;;;;;;4.88;3.05;;;;;;;;;;5886796;28;20059;-69
2023/10/27 12:59:33;;;;;;;4.57;3.10;;;;;;;;;;5886931;28;20040;-69
2023/10/27 13:02:24;;;;;;;4.25;3.28;;;;;;;;;;5886772;28;20045;-69
2023/10/27 13:05:17;;;;;;;6.18;3.15;;;;;;;;;;5887565;28;20103;-69
2023/10/27 13:08:10;;;;;;;2.00;1.75;;;;;;;;;;5887384;28;20163;-69
2023/10/27 13:11:04;;;;;;;4.40;3.28;;;;;;;;;;5886744;28;20053;-69
2023/10/27 13:13:55;;;;;;;11.02;5.88;;;;;;;;;;5887997;28;20072;-69
2023/10/27 13:16:46;;;;;;;7.82;2.95;;;;;;;;;;5887482;28;20052;-69
2023/10/27 13:19:37;;;;;;;6.38;4.30;;;;;;;;;;5888031;28;20466;-69
2023/10/27 13:22:29;;;;;;;17.55;4.45;;;;;;;;;;5886578;28;20048;-69
2023/10/27 13:25:20;;;;;;;3.17;2.33;;;;;;;;;;5887359;28;20491;-69
2023/10/27 13:28:11;;;;;;;8.45;3.90;;;;;;;;;;5887311;28;20507;-69
2023/10/27 13:31:02;;;;;;;6.78;2.83;;;;;;;;;;5885801;28;20049;-69
2023/10/27 13:33:58;;;;;;;2.75;2.33;;;;;;;;;;5887775;28;20127;-69
2023/10/27 13:36:49;;;;;;;7.32;5.00;;;;;;;;;;5887286;28;20510;-69
2023/10/27 13:39:40;;;;;;;6.35;4.40;;;;;;;;;;5887460;28;20063;-69
2023/10/27 13:42:31;;;;;;;5.50;3.83;;;;;;;;;;5886038;28;20079;-69
2023/10/27 13:45:22;;;;;;;4.82;4.25;;;;;;;;;;5886978;28;20068;-69
2023/10/27 13:48:12;;;;;;;6.32;4.50;;;;;;;;;;5887277;28;20430;-69
2023/10/27 13:51:11;;;;;;;2.97;2.67;;;;;;;;;;5885213;28;20045;-69
2023/10/27 13:54:02;;;;;;;3.80;3.00;;;;;;;;;;5887036;28;20432;-69
2023/10/27 13:56:53;;;;;;;3.35;2.85;;;;;;;;;;5886631;28;20469;-69
2023/10/27 13:59:44;;;;;;;4.57;3.45;;;;;;;;;;5887077;28;20171;-69
2023/10/27 14:02:35;;;;;;;7.00;4.85;;;;;;;;;;5885993;28;20051;-69
2023/10/27 14:05:26;;;;;;;10.52;5.22;;;;;;;;;;5886958;28;20047;-68
2023/10/27 14:08:17;;;;;;;5.10;3.40;;;;;;;;;;5886706;28;20124;-69
2023/10/27 14:11:08;;;;;;;8.43;4.60;;;;;;;;;;5891101;28;20049;-69
2023/10/27 14:13:58;;;;;;;3.08;2.08;;;;;;;;;;5914847;28;20135;-69
2023/10/27 14:16:49;;;;;;;2.67;2.13;;;;;;;;;;5914260;28;20049;-69
2023/10/27 14:19:40;;;;;;;5.97;3.58;;;;;;;;;;5914576;28;20048;-69
2023/10/27 14:22:31;;;;;;;6.18;4.00;;;;;;;;;;5913456;28;20047;-69
2023/10/27 14:25:26;;;;;;;12.90;6.95;;;;;;;;;;5913791;28;20044;-69
2023/10/27 14:28:17;;;;;;;15.05;7.35;;;;;;;;;;5914052;28;20072;-69
2023/10/27 14:31:08;;;;;;;11.70;5.32;;;;;;;;;;5914057;28;20074;-69
2023/10/27 14:34:01;;;;;;;8.90;5.30;;;;;;;;;;5913915;28;20044;-69
2023/10/27 14:36:51;;;;;;;9.70;6.68;;;;;;;;;;5913803;28;20052;-69
2023/10/27 14:39:42;;;;;;;2.70;2.03;;;;;;;;;;5913782;28;20196;-69
2023/10/27 14:42:33;;;;;;;5.07;2.88;;;;;;;;;;5912642;28;20076;-69
2023/10/27 14:45:24;;;;;;;3.45;3.13;;;;;;;;;;5913399;28;20047;-68
2023/10/27 14:48:16;;;;;;;5.57;3.90;;;;;;;;;;5913381;28;20048;-69
2023/10/27 14:51:10;;;;;;;6.10;3.45;;;;;;;;;;5913302;28;20064;-69
2023/10/27 14:54:02;;;;;;;6.18;4.07;;;;;;;;;;5911875;28;20048;-69
2023/10/27 14:56:52;;;;;;;3.08;2.75;;;;;;;;;;5912776;28;20502;-69
2023/10/27 14:59:43;;;;;;;2.25;1.63;;;;;;;;;;5913360;28;20060;-69
2023/10/27 15:02:35;;;;;;;4.45;2.95;;;;;;;;;;5912713;28;20047;-69
2023/10/27 15:05:26;;;;;;;3.85;3.35;;;;;;;;;;5912612;28;20962;-69
2023/10/27 15:08:16;;;;;;;4.88;4.40;;;;;;;;;;5912761;28;20052;-69
2023/10/27 15:11:07;;;;;;;16.60;8.65;;;;;;;;;;5912314;28;20048;-69
2023/10/27 15:13:58;;;;;;;12.38;7.18;;;;;;;;;;5912084;28;20131;-69
2023/10/27 15:16:49;;;;;;;12.38;8.45;;;;;;;;;;5912526;28;20094;-69
2023/10/27 15:19:40;;;;;;;15.05;9.68;;;;;;;;;;5912770;28;20060;-69
2023/10/27 15:22:31;;;;;;;66.97;27.85;;;;;;;;;;5911269;28;20052;-69
2023/10/27 15:25:22;;;;;;;51.38;24.17;;;;;;;;;;5911506;28;20045;-69
2023/10/27 15:28:13;;;;;;;35.42;13.15;;;;;;;;;;5912373;28;20138;-69
2023/10/27 15:31:08;;;;;;;10.30;6.75;;;;;;;;;;5912263;28;20433;-69
2023/10/27 15:33:59;;;;;;;3.85;3.00;;;;;;;;;;5912777;28;20131;-69
2023/10/27 15:36:53;;;;;;;4.30;3.58;;;;;;;;;;5899862;28;20048;-69
2023/10/27 15:39:44;;;;;;;5.10;3.05;;;;;;;;;;5903066;28;20051;-69
2023/10/27 15:42:36;;;;;;;4.25;2.13;;;;;;;;;;5911584;28;20563;-69
2023/10/27 15:45:28;;;;;;;2.95;2.53;;;;;;;;;;5910923;28;20045;-69
2023/10/27 15:48:19;;;;;;;10.85;5.35;;;;;;;;;;5911454;28;20059;-69
2023/10/27 15:51:12;;;;;;;12.52;7.43;;;;;;;;;;5911633;28;20052;-69
2023/10/27 15:54:03;;;;;;;9.50;6.70;;;;;;;;;;5895187;28;20045;-69
2023/10/27 15:56:56;;;;;;;16.60;6.65;;;;;;;;;;5888304;28;20064;-69
2023/10/27 15:59:47;;;;;;;8.93;5.40;;;;;;;;;;5887102;28;20170;-69
2023/10/27 16:02:38;;;;;;;6.90;4.88;;;;;;;;;;5888013;28;20414;-68
2023/10/27 16:05:34;;;;;;;4.63;4.13;;;;;;;;;;5886633;28;20041;-69
2023/10/27 16:08:26;;;;;;;10.45;5.32;;;;;;;;;;5886758;28;20059;-69
2023/10/27 16:11:17;;;;;;;9.63;5.68;;;;;;;;;;5886521;28;20047;-69
2023/10/27 16:14:07;;;;;;;7.25;3.90;;;;;;;;;;5885838;28;20053;-69
2023/10/27 16:16:58;;;;;;;11.15;4.93;;;;;;;;;;5887635;28;20053;-69
2023/10/27 16:19:49;;;;;;;6.07;3.40;;;;;;;;;;5886231;28;20139;-69
2023/10/27 16:22:41;;;;;;;3.55;2.55;;;;;;;;;;5887097;28;20057;-69
2023/10/27 16:25:33;;;;;;;5.22;4.25;;;;;;;;;;5886974;28;20049;-69
2023/10/27 16:28:24;;;;;;;9.63;4.18;;;;;;;;;;5886870;28;20049;-69
2023/10/27 16:31:15;;;;;;;6.07;4.53;;;;;;;;;;5886995;28;20414;-69
2023/10/27 16:34:05;;;;;;;6.53;4.85;;;;;;;;;;5889710;28;20130;-69
2023/10/27 16:36:56;;;;;;;10.18;4.43;;;;;;;;;;5893677;28;20051;-69
2023/10/27 16:39:48;;;;;;;10.35;6.75;;;;;;;;;;5900242;28;20056;-69
2023/10/27 16:42:39;;;;;;;7.85;5.15;;;;;;;;;;5895434;28;20052;-69
2023/10/27 16:45:30;;;;;;;10.65;5.13;;;;;;;;;;5901863;28;20049;-69
2023/10/27 16:48:21;;;;;;;3.45;2.95;;;;;;;;;;5910067;28;20380;-69
2023/10/27 16:51:16;;;;;;;5.30;2.45;;;;;;;;;;5910200;28;20517;-69
2023/10/27 16:54:07;;;;;;;10.57;5.80;;;;;;;;;;5909810;28;20070;-69
2023/10/27 16:56:58;;;;;;;20.17;11.40;;;;;;;;;;5901365;28;20879;-69
2023/10/27 16:59:49;;;;;;;33.65;15.27;;;;;;;;;;5898513;28;20060;-70
2023/10/27 17:02:42;;;;;;;20.33;11.70;;;;;;;;;;5879698;28;20048;-69
2023/10/27 17:05:33;;;;;;;10.10;8.27;;;;;;;;;;5897059;28;20151;-69
2023/10/27 17:08:27;;;;;;;7.53;4.88;;;;;;;;;;5897836;28;20414;-69